sensor_id;sensor_type;location;lat;lon;timestamp;pressure;altitude;pressure_sealevel;temperature;humidity
53522;BME280;39398;48.382;9.802;2023-04-15T00:01:18;92807.91;;;6.58;81.75
53522;BME280;39398;48.382;9.802;2023-04-15T00:06:21;92797.16;;;6.87;79.42
53522;BME280;39398;48.382;9.802;2023-04-15T00:11:23;92805.19;;;6.86;80.63
53522;BME280;39398;48.382;9.802;2023-04-15T00:16:24;92800.97;;;6.91;79.65
53522;BME280;39398;48.382;9.802;2023-04-15T00:21:27;92802.75;;;6.78;85.24
53522;BME280;39398;48.382;9.802;2023-04-15T00:26:29;92799.19;;;6.98;80.92
53522;BME280;39398;48.382;9.802;2023-04-15T00:31:31;92796.34;;;6.87;84.07
53522;BME280;39398;48.382;9.802;2023-04-15T00:36:33;92798.19;;;6.93;81.98
53522;BME280;39398;48.382;9.802;2023-04-15T00:41:35;92801.19;;;6.90;82.70
53522;BME280;39398;48.382;9.802;2023-04-15T00:46:37;92799.78;;;6.46;83.37
53522;BME280;39398;48.382;9.802;2023-04-15T00:51:40;92794.53;;;6.46;83.82
53522;BME280;39398;48.382;9.802;2023-04-15T00:56:42;92793.03;;;6.65;83.61
53522;BME280;39398;48.382;9.802;2023-04-15T01:01:44;92798.84;;;6.60;84.36
53522;BME280;39398;48.382;9.802;2023-04-15T01:06:47;92795.38;;;6.53;86.80
53522;BME280;39398;48.382;9.802;2023-04-15T01:11:48;92798.31;;;6.37;90.34
53522;BME280;39398;48.382;9.802;2023-04-15T01:16:51;92790.06;;;6.40;88.71
53522;BME280;39398;48.382;9.802;2023-04-15T01:21:54;92790.31;;;6.45;88.63
53522;BME280;39398;48.382;9.802;2023-04-15T01:26:58;92780.78;;;6.37;88.30
53522;BME280;39398;48.382;9.802;2023-04-15T01:31:59;92785.25;;;6.43;88.87
53522;BME280;39398;48.382;9.802;2023-04-15T01:37:01;92779.34;;;6.35;89.20
53522;BME280;39398;48.382;9.802;2023-04-15T01:42:04;92775.19;;;6.47;86.71
53522;BME280;39398;48.382;9.802;2023-04-15T01:47:06;92764.28;;;6.43;88.34
53522;BME280;39398;48.382;9.802;2023-04-15T01:52:07;92772.13;;;6.43;86.76
53522;BME280;39398;48.382;9.802;2023-04-15T01:57:10;92777.63;;;6.14;88.84
53522;BME280;39398;48.382;9.802;2023-04-15T02:02:12;92768.38;;;6.18;89.44
53522;BME280;39398;48.382;9.802;2023-04-15T02:07:13;92776.31;;;6.31;90.72
53522;BME280;39398;48.382;9.802;2023-04-15T02:12:16;92771.59;;;6.13;90.13
53522;BME280;39398;48.382;9.802;2023-04-15T02:17:18;92773.09;;;6.29;89.37
53522;BME280;39398;48.382;9.802;2023-04-15T02:22:19;92768.88;;;6.41;86.51
53522;BME280;39398;48.382;9.802;2023-04-15T02:27:22;92765.06;;;6.37;87.23
53522;BME280;39398;48.382;9.802;2023-04-15T02:32:24;92766.06;;;6.36;89.81
53522;BME280;39398;48.382;9.802;2023-04-15T02:37:25;92761.38;;;6.32;87.79
53522;BME280;39398;48.382;9.802;2023-04-15T02:42:28;92763.00;;;6.26;87.30
53522;BME280;39398;48.382;9.802;2023-04-15T02:47:30;92754.88;;;6.21;89.35
53522;BME280;39398;48.382;9.802;2023-04-15T02:52:31;92760.34;;;6.19;86.97
53522;BME280;39398;48.382;9.802;2023-04-15T02:57:34;92763.47;;;6.08;87.50
53522;BME280;39398;48.382;9.802;2023-04-15T03:02:38;92757.66;;;5.85;89.11
53522;BME280;39398;48.382;9.802;2023-04-15T03:07:40;92764.34;;;5.87;89.17
53522;BME280;39398;48.382;9.802;2023-04-15T03:12:42;92766.97;;;5.87;91.03
53522;BME280;39398;48.382;9.802;2023-04-15T03:17:44;92766.34;;;5.85;89.09
53522;BME280;39398;48.382;9.802;2023-04-15T03:22:46;92760.56;;;5.68;89.30
53522;BME280;39398;48.382;9.802;2023-04-15T03:27:48;92754.41;;;5.82;88.64
53522;BME280;39398;48.382;9.802;2023-04-15T03:32:50;92747.09;;;5.71;88.68
53522;BME280;39398;48.382;9.802;2023-04-15T03:37:52;92740.88;;;6.00;86.75
53522;BME280;39398;48.382;9.802;2023-04-15T03:42:54;92750.09;;;5.96;87.72
53522;BME280;39398;48.382;9.802;2023-04-15T03:47:56;92746.53;;;6.04;86.93
53522;BME280;39398;48.382;9.802;2023-04-15T03:53:16;92742.16;;;6.18;86.96
53522;BME280;39398;48.382;9.802;2023-04-15T03:58:19;92746.75;;;6.09;87.15
53522;BME280;39398;48.382;9.802;2023-04-15T04:03:20;92749.28;;;5.96;86.98
53522;BME280;39398;48.382;9.802;2023-04-15T04:08:22;92743.16;;;6.10;86.28
53522;BME280;39398;48.382;9.802;2023-04-15T04:13:25;92748.56;;;6.09;85.26
53522;BME280;39398;48.382;9.802;2023-04-15T04:18:27;92754.09;;;5.92;85.13
53522;BME280;39398;48.382;9.802;2023-04-15T04:23:28;92756.81;;;6.05;86.00
53522;BME280;39398;48.382;9.802;2023-04-15T04:28:31;92761.59;;;5.95;85.84
53522;BME280;39398;48.382;9.802;2023-04-15T04:33:33;92763.53;;;6.15;84.67
53522;BME280;39398;48.382;9.802;2023-04-15T04:38:34;92767.88;;;6.01;85.43
53522;BME280;39398;48.382;9.802;2023-04-15T04:43:37;92768.88;;;6.00;86.70
53522;BME280;39398;48.382;9.802;2023-04-15T04:48:39;92771.69;;;5.98;87.60
53522;BME280;39398;48.382;9.802;2023-04-15T04:53:40;92775.19;;;5.84;87.88
53522;BME280;39398;48.382;9.802;2023-04-15T04:58:43;92782.84;;;5.86;86.58
53522;BME280;39398;48.382;9.802;2023-04-15T05:03:45;92782.44;;;5.82;87.90
53522;BME280;39398;48.382;9.802;2023-04-15T05:08:47;92777.31;;;5.46;89.13
53522;BME280;39398;48.382;9.802;2023-04-15T05:13:50;92774.66;;;5.67;88.55
53522;BME280;39398;48.382;9.802;2023-04-15T05:18:51;92773.00;;;5.38;89.23
53522;BME280;39398;48.382;9.802;2023-04-15T05:23:53;92777.00;;;5.34;89.05
53522;BME280;39398;48.382;9.802;2023-04-15T05:28:56;92781.53;;;5.25;89.81
53522;BME280;39398;48.382;9.802;2023-04-15T05:33:57;92785.53;;;5.43;90.27
53522;BME280;39398;48.382;9.802;2023-04-15T05:38:59;92785.47;;;5.86;87.71
53522;BME280;39398;48.382;9.802;2023-04-15T05:44:03;92787.66;;;6.03;89.08
53522;BME280;39398;48.382;9.802;2023-04-15T05:49:04;92781.69;;;6.58;86.27
53522;BME280;39398;48.382;9.802;2023-04-15T05:54:06;92787.91;;;7.11;85.65
53522;BME280;39398;48.382;9.802;2023-04-15T05:59:08;92791.03;;;7.41;87.34
53522;BME280;39398;48.382;9.802;2023-04-15T06:04:10;92796.91;;;7.77;85.92
53522;BME280;39398;48.382;9.802;2023-04-15T06:09:12;92799.28;;;8.51;83.10
53522;BME280;39398;48.382;9.802;2023-04-15T06:14:15;92789.84;;;8.95;75.90
53522;BME280;39398;48.382;9.802;2023-04-15T06:19:16;92796.03;;;9.14;75.38
53522;BME280;39398;48.382;9.802;2023-04-15T06:24:18;92797.50;;;9.42;73.99
53522;BME280;39398;48.382;9.802;2023-04-15T06:29:21;92799.22;;;9.23;74.33
53522;BME280;39398;48.382;9.802;2023-04-15T06:34:22;92796.28;;;9.38;73.52
53522;BME280;39398;48.382;9.802;2023-04-15T06:39:24;92793.59;;;9.51;72.71
53522;BME280;39398;48.382;9.802;2023-04-15T06:44:28;92799.97;;;9.37;72.78
53522;BME280;39398;48.382;9.802;2023-04-15T06:49:29;92800.50;;;9.14;74.58
53522;BME280;39398;48.382;9.802;2023-04-15T06:54:31;92807.41;;;9.46;73.88
53522;BME280;39398;48.382;9.802;2023-04-15T06:59:34;92800.56;;;9.00;74.09
53522;BME280;39398;48.382;9.802;2023-04-15T07:04:35;92802.28;;;9.20;73.75
53522;BME280;39398;48.382;9.802;2023-04-15T07:09:37;92807.94;;;9.23;72.40
53522;BME280;39398;48.382;9.802;2023-04-15T07:14:40;92811.13;;;8.80;76.17
53522;BME280;39398;48.382;9.802;2023-04-15T07:19:41;92795.41;;;8.60;77.18
53522;BME280;39398;48.382;9.802;2023-04-15T07:24:43;92793.75;;;8.79;77.04
53522;BME280;39398;48.382;9.802;2023-04-15T07:29:46;92798.00;;;9.25;77.73
53522;BME280;39398;48.382;9.802;2023-04-15T07:34:47;92798.66;;;9.14;77.15
53522;BME280;39398;48.382;9.802;2023-04-15T07:39:49;92797.53;;;8.90;74.49
53522;BME280;39398;48.382;9.802;2023-04-15T07:44:52;92811.63;;;8.57;88.16
53522;BME280;39398;48.382;9.802;2023-04-15T07:49:53;92799.66;;;9.20;79.72
53522;BME280;39398;48.382;9.802;2023-04-15T07:54:55;92808.16;;;9.85;70.90
53522;BME280;39398;48.382;9.802;2023-04-15T07:59:59;92798.38;;;9.92;72.46
53522;BME280;39398;48.382;9.802;2023-04-15T08:05:00;92790.84;;;10.64;56.65
53522;BME280;39398;48.382;9.802;2023-04-15T08:10:03;92790.25;;;10.99;57.40
53522;BME280;39398;48.382;9.802;2023-04-15T08:15:07;92780.38;;;10.58;64.45
53522;BME280;39398;48.382;9.802;2023-04-15T08:20:09;92787.97;;;9.41;72.52
53522;BME280;39398;48.382;9.802;2023-04-15T08:25:11;92789.69;;;9.85;62.55
53522;BME280;39398;48.382;9.802;2023-04-15T08:30:14;92793.03;;;10.24;67.92
53522;BME280;39398;48.382;9.802;2023-04-15T08:35:15;92789.59;;;10.67;67.37
53522;BME280;39398;48.382;9.802;2023-04-15T08:40:17;92795.06;;;10.29;59.18
53522;BME280;39398;48.382;9.802;2023-04-15T08:45:21;92783.56;;;10.41;64.57
53522;BME280;39398;48.382;9.802;2023-04-15T08:50:23;92790.50;;;9.86;66.30
53522;BME280;39398;48.382;9.802;2023-04-15T08:55:29;92790.38;;;10.24;58.13
53522;BME280;39398;48.382;9.802;2023-04-15T09:00:32;92782.84;;;9.52;68.36
53522;BME280;39398;48.382;9.802;2023-04-15T09:05:34;92796.38;;;10.13;58.57
53522;BME280;39398;48.382;9.802;2023-04-15T09:10:36;92795.69;;;11.04;43.92
53522;BME280;39398;48.382;9.802;2023-04-15T09:15:39;92794.56;;;11.30;48.92
53522;BME280;39398;48.382;9.802;2023-04-15T09:26:32;92800.09;;;10.74;56.03
53522;BME280;39398;48.382;9.802;2023-04-15T09:31:48;92803.84;;;10.66;45.67
53522;BME280;39398;48.382;9.802;2023-04-15T09:37:05;92801.44;;;10.39;51.86
53522;BME280;39398;48.382;9.802;2023-04-15T09:42:08;92808.69;;;10.69;51.54
53522;BME280;39398;48.382;9.802;2023-04-15T09:47:26;92810.66;;;10.74;56.29
53522;BME280;39398;48.382;9.802;2023-04-15T09:52:28;92812.19;;;11.18;55.20
53522;BME280;39398;48.382;9.802;2023-04-15T09:57:34;92812.78;;;11.50;61.81
53522;BME280;39398;48.382;9.802;2023-04-15T10:02:38;92806.25;;;11.64;64.24
53522;BME280;39398;48.382;9.802;2023-04-15T10:07:41;92811.50;;;11.83;56.07
53522;BME280;39398;48.382;9.802;2023-04-15T10:12:43;92809.88;;;12.00;46.62
53522;BME280;39398;48.382;9.802;2023-04-15T10:17:46;92798.97;;;11.18;47.43
53522;BME280;39398;48.382;9.802;2023-04-15T10:22:51;92810.88;;;10.72;51.48
53522;BME280;39398;48.382;9.802;2023-04-15T10:27:54;92819.94;;;10.08;51.85
53522;BME280;39398;48.382;9.802;2023-04-15T10:32:58;92817.03;;;11.81;47.30
53522;BME280;39398;48.382;9.802;2023-04-15T10:38:00;92817.19;;;11.08;48.25
53522;BME280;39398;48.382;9.802;2023-04-15T10:43:02;92811.25;;;11.43;55.41
53522;BME280;39398;48.382;9.802;2023-04-15T10:48:07;92818.44;;;11.35;50.25
53522;BME280;39398;48.382;9.802;2023-04-15T10:53:09;92821.50;;;10.84;64.31
53522;BME280;39398;48.382;9.802;2023-04-15T10:58:11;92813.53;;;10.29;59.16
53522;BME280;39398;48.382;9.802;2023-04-15T11:03:14;92817.34;;;10.33;62.13
53522;BME280;39398;48.382;9.802;2023-04-15T11:08:16;92816.88;;;11.16;55.46
53522;BME280;39398;48.382;9.802;2023-04-15T11:13:22;92807.28;;;10.85;65.63
53522;BME280;39398;48.382;9.802;2023-04-15T11:18:30;92820.50;;;10.16;61.37
53522;BME280;39398;48.382;9.802;2023-04-15T11:23:38;92836.44;;;10.71;66.63
53522;BME280;39398;48.382;9.802;2023-04-15T11:28:40;92839.72;;;10.48;60.24
53522;BME280;39398;48.382;9.802;2023-04-15T11:33:54;92848.34;;;10.81;56.47
53522;BME280;39398;48.382;9.802;2023-04-15T11:38:57;92820.22;;;10.50;61.80
53522;BME280;39398;48.382;9.802;2023-04-15T11:43:59;92857.22;;;10.43;69.25
53522;BME280;39398;48.382;9.802;2023-04-15T11:49:02;92848.31;;;10.12;70.80
53522;BME280;39398;48.382;9.802;2023-04-15T11:54:03;92848.97;;;10.58;72.65
53522;BME280;39398;48.382;9.802;2023-04-15T11:59:06;92864.75;;;10.39;71.10
53522;BME280;39398;48.382;9.802;2023-04-15T12:04:11;92883.13;;;9.96;66.34
53522;BME280;39398;48.382;9.802;2023-04-15T12:09:15;92881.16;;;10.16;67.11
53522;BME280;39398;48.382;9.802;2023-04-15T12:14:23;92883.97;;;10.71;50.00
53522;BME280;39398;48.382;9.802;2023-04-15T12:19:28;92897.59;;;10.68;53.56
53522;BME280;39398;48.382;9.802;2023-04-15T12:24:30;92897.94;;;10.79;52.13
53522;BME280;39398;48.382;9.802;2023-04-15T12:29:33;92895.00;;;10.62;54.20
53522;BME280;39398;48.382;9.802;2023-04-15T12:34:38;92913.47;;;10.43;57.32
53522;BME280;39398;48.382;9.802;2023-04-15T12:39:41;92913.97;;;9.89;65.03
53522;BME280;39398;48.382;9.802;2023-04-15T12:44:43;92916.72;;;10.07;71.82
53522;BME280;39398;48.382;9.802;2023-04-15T12:49:46;92906.19;;;9.69;69.84
53522;BME280;39398;48.382;9.802;2023-04-15T12:54:47;92925.41;;;10.08;63.76
53522;BME280;39398;48.382;9.802;2023-04-15T12:59:49;92917.41;;;10.21;64.43
53522;BME280;39398;48.382;9.802;2023-04-15T13:04:52;92932.56;;;10.89;64.73
53522;BME280;39398;48.382;9.802;2023-04-15T13:09:53;92916.00;;;10.25;58.27
53522;BME280;39398;48.382;9.802;2023-04-15T13:14:55;92936.97;;;10.70;58.46
53522;BME280;39398;48.382;9.802;2023-04-15T13:19:58;92926.97;;;9.90;56.21
53522;BME280;39398;48.382;9.802;2023-04-15T13:24:59;92956.13;;;9.50;55.45
53522;BME280;39398;48.382;9.802;2023-04-15T13:30:01;92975.03;;;9.27;63.55
53522;BME280;39398;48.382;9.802;2023-04-15T13:35:04;92998.13;;;9.19;66.96
53522;BME280;39398;48.382;9.802;2023-04-15T13:40:07;93012.38;;;8.84;71.96
53522;BME280;39398;48.382;9.802;2023-04-15T13:45:09;93020.66;;;8.81;79.02
53522;BME280;39398;48.382;9.802;2023-04-15T13:50:12;93006.31;;;7.83;86.61
53522;BME280;39398;48.382;9.802;2023-04-15T13:55:14;93024.41;;;7.58;100.00
53522;BME280;39398;48.382;9.802;2023-04-15T14:00:21;93042.34;;;7.48;100.00
53522;BME280;39398;48.382;9.802;2023-04-15T14:05:24;93042.31;;;7.13;100.00
53522;BME280;39398;48.382;9.802;2023-04-15T14:10:26;93065.47;;;7.03;100.00
53522;BME280;39398;48.382;9.802;2023-04-15T14:15:27;93079.84;;;6.85;100.00
53522;BME280;39398;48.382;9.802;2023-04-15T14:20:30;93085.09;;;6.85;100.00
53522;BME280;39398;48.382;9.802;2023-04-15T14:25:32;93085.09;;;6.21;100.00
53522;BME280;39398;48.382;9.802;2023-04-15T14:30:34;93099.94;;;6.14;100.00
53522;BME280;39398;48.382;9.802;2023-04-15T14:35:38;93098.47;;;6.69;100.00
53522;BME280;39398;48.382;9.802;2023-04-15T14:40:40;93098.19;;;7.07;100.00
53522;BME280;39398;48.382;9.802;2023-04-15T14:45:42;93093.19;;;7.12;100.00
53522;BME280;39398;48.382;9.802;2023-04-15T14:50:47;93101.94;;;7.19;98.06
53522;BME280;39398;48.382;9.802;2023-04-15T14:55:48;93105.94;;;7.15;96.71
53522;BME280;39398;48.382;9.802;2023-04-15T15:00:50;93098.84;;;7.09;86.11
53522;BME280;39398;48.382;9.802;2023-04-15T15:05:53;93106.63;;;7.30;85.39
53522;BME280;39398;48.382;9.802;2023-04-15T15:10:55;93109.09;;;7.32;84.33
53522;BME280;39398;48.382;9.802;2023-04-15T15:15:57;93104.97;;;7.22;80.32
53522;BME280;39398;48.382;9.802;2023-04-15T15:21:00;93110.69;;;7.33;73.22
53522;BME280;39398;48.382;9.802;2023-04-15T15:26:01;93114.81;;;7.42;71.61
53522;BME280;39398;48.382;9.802;2023-04-15T15:31:03;93108.88;;;7.61;69.38
53522;BME280;39398;48.382;9.802;2023-04-15T15:36:06;93115.94;;;7.61;70.39
53522;BME280;39398;48.382;9.802;2023-04-15T15:41:08;93119.78;;;7.65;68.87
53522;BME280;39398;48.382;9.802;2023-04-15T15:46:09;93116.78;;;7.68;70.27
53522;BME280;39398;48.382;9.802;2023-04-15T15:51:12;93118.34;;;7.97;72.65
53522;BME280;39398;48.382;9.802;2023-04-15T15:56:14;93130.31;;;8.06;68.77
53522;BME280;39398;48.382;9.802;2023-04-15T16:01:16;93134.63;;;8.14;69.18
53522;BME280;39398;48.382;9.802;2023-04-15T16:06:19;93146.06;;;8.00;69.57
53522;BME280;39398;48.382;9.802;2023-04-15T16:11:20;93161.69;;;7.73;68.28
53522;BME280;39398;48.382;9.802;2023-04-15T16:16:22;93167.28;;;7.63;72.00
53522;BME280;39398;48.382;9.802;2023-04-15T16:21:25;93148.72;;;7.72;71.15
53522;BME280;39398;48.382;9.802;2023-04-15T16:26:26;93181.41;;;7.62;73.78
53522;BME280;39398;48.382;9.802;2023-04-15T16:31:28;93178.59;;;7.36;73.87
53522;BME280;39398;48.382;9.802;2023-04-15T16:36:33;93195.78;;;7.38;75.60
53522;BME280;39398;48.382;9.802;2023-04-15T16:41:35;93196.09;;;7.29;76.15
53522;BME280;39398;48.382;9.802;2023-04-15T16:46:37;93207.31;;;7.16;80.84
53522;BME280;39398;48.382;9.802;2023-04-15T16:51:42;93225.41;;;7.11;82.38
53522;BME280;39398;48.382;9.802;2023-04-15T16:56:44;93236.34;;;6.93;84.63
53522;BME280;39398;48.382;9.802;2023-04-15T17:01:45;93242.38;;;6.72;92.08
53522;BME280;39398;48.382;9.802;2023-04-15T17:06:49;93237.09;;;6.36;93.50
53522;BME280;39398;48.382;9.802;2023-04-15T17:11:50;93248.50;;;6.13;97.55
53522;BME280;39398;48.382;9.802;2023-04-15T17:16:52;93250.41;;;6.04;100.00
53522;BME280;39398;48.382;9.802;2023-04-15T17:21:55;93264.44;;;5.89;100.00
53522;BME280;39398;48.382;9.802;2023-04-15T17:26:56;93248.94;;;5.26;100.00
53522;BME280;39398;48.382;9.802;2023-04-15T17:31:58;93278.09;;;5.46;100.00
53522;BME280;39398;48.382;9.802;2023-04-15T17:37:01;93281.53;;;5.47;100.00
53522;BME280;39398;48.382;9.802;2023-04-15T17:42:03;93304.78;;;5.42;100.00
53522;BME280;39398;48.382;9.802;2023-04-15T17:47:05;93309.44;;;5.31;100.00
53522;BME280;39398;48.382;9.802;2023-04-15T17:52:08;93305.66;;;5.34;100.00
53522;BME280;39398;48.382;9.802;2023-04-15T17:57:10;93315.91;;;5.21;100.00
53522;BME280;39398;48.382;9.802;2023-04-15T18:02:11;93328.09;;;5.05;100.00
53522;BME280;39398;48.382;9.802;2023-04-15T18:07:15;93337.13;;;5.26;100.00
53522;BME280;39398;48.382;9.802;2023-04-15T18:12:16;93328.81;;;5.45;100.00
53522;BME280;39398;48.382;9.802;2023-04-15T18:17:18;93343.66;;;5.53;100.00
53522;BME280;39398;48.382;9.802;2023-04-15T18:22:21;93356.41;;;5.33;100.00
53522;BME280;39398;48.382;9.802;2023-04-15T18:27:22;93361.88;;;5.46;100.00
53522;BME280;39398;48.382;9.802;2023-04-15T18:32:24;93368.41;;;5.42;100.00
53522;BME280;39398;48.382;9.802;2023-04-15T18:37:27;93372.81;;;5.50;100.00
53522;BME280;39398;48.382;9.802;2023-04-15T18:42:41;93380.31;;;5.53;100.00
53522;BME280;39398;48.382;9.802;2023-04-15T18:47:43;93399.25;;;5.55;100.00
53522;BME280;39398;48.382;9.802;2023-04-15T18:52:46;93394.94;;;5.39;100.00
53522;BME280;39398;48.382;9.802;2023-04-15T18:57:48;93401.13;;;5.46;100.00
53522;BME280;39398;48.382;9.802;2023-04-15T19:02:50;93406.72;;;5.43;100.00
53522;BME280;39398;48.382;9.802;2023-04-15T19:07:54;93416.91;;;5.61;100.00
53522;BME280;39398;48.382;9.802;2023-04-15T19:13:00;93425.72;;;5.37;100.00
53522;BME280;39398;48.382;9.802;2023-04-15T19:18:01;93433.91;;;5.65;100.00
53522;BME280;39398;48.382;9.802;2023-04-15T19:23:05;93440.41;;;5.46;100.00
53522;BME280;39398;48.382;9.802;2023-04-15T19:28:06;93448.31;;;4.99;100.00
53522;BME280;39398;48.382;9.802;2023-04-15T19:33:08;93442.13;;;5.23;100.00
53522;BME280;39398;48.382;9.802;2023-04-15T19:38:11;93451.88;;;5.06;100.00
53522;BME280;39398;48.382;9.802;2023-04-15T19:43:12;93451.84;;;5.14;100.00
53522;BME280;39398;48.382;9.802;2023-04-15T19:48:14;93462.22;;;4.91;100.00
53522;BME280;39398;48.382;9.802;2023-04-15T19:53:17;93473.41;;;4.52;100.00
53522;BME280;39398;48.382;9.802;2023-04-15T19:58:19;93462.59;;;4.80;100.00
53522;BME280;39398;48.382;9.802;2023-04-15T20:03:20;93461.63;;;4.64;100.00
53522;BME280;39398;48.382;9.802;2023-04-15T20:08:24;93458.28;;;4.31;100.00
53522;BME280;39398;48.382;9.802;2023-04-15T20:13:25;93469.00;;;4.69;100.00
53522;BME280;39398;48.382;9.802;2023-04-15T20:18:27;93478.75;;;4.75;100.00
53522;BME280;39398;48.382;9.802;2023-04-15T20:23:30;93481.00;;;5.03;100.00
53522;BME280;39398;48.382;9.802;2023-04-15T20:28:31;93479.50;;;5.00;100.00
53522;BME280;39398;48.382;9.802;2023-04-15T20:33:33;93482.28;;;5.46;100.00
53522;BME280;39398;48.382;9.802;2023-04-15T20:38:36;93482.41;;;5.13;100.00
53522;BME280;39398;48.382;9.802;2023-04-15T20:43:37;93484.88;;;5.15;100.00
53522;BME280;39398;48.382;9.802;2023-04-15T20:48:39;93486.84;;;5.13;100.00
53522;BME280;39398;48.382;9.802;2023-04-15T20:53:42;93488.75;;;5.27;100.00
53522;BME280;39398;48.382;9.802;2023-04-15T20:58:44;93489.09;;;5.24;100.00
53522;BME280;39398;48.382;9.802;2023-04-15T21:03:45;93491.53;;;5.26;100.00
53522;BME280;39398;48.382;9.802;2023-04-15T21:08:48;93493.94;;;5.35;100.00
53522;BME280;39398;48.382;9.802;2023-04-15T21:13:50;93498.09;;;5.13;100.00
53522;BME280;39398;48.382;9.802;2023-04-15T21:18:52;93493.72;;;5.53;100.00
53522;BME280;39398;48.382;9.802;2023-04-15T21:23:56;93509.13;;;5.79;100.00
53522;BME280;39398;48.382;9.802;2023-04-15T21:28:57;93510.19;;;5.93;100.00
53522;BME280;39398;48.382;9.802;2023-04-15T21:33:59;93508.59;;;6.15;100.00
53522;BME280;39398;48.382;9.802;2023-04-15T21:39:02;93509.03;;;6.19;100.00
53522;BME280;39398;48.382;9.802;2023-04-15T21:44:04;93512.44;;;6.04;100.00
53522;BME280;39398;48.382;9.802;2023-04-15T21:49:06;93522.16;;;6.19;100.00
53522;BME280;39398;48.382;9.802;2023-04-15T21:54:09;93517.31;;;6.31;100.00
53522;BME280;39398;48.382;9.802;2023-04-15T21:59:17;93520.06;;;6.37;100.00
53522;BME280;39398;48.382;9.802;2023-04-15T22:04:18;93524.78;;;6.42;100.00
53522;BME280;39398;48.382;9.802;2023-04-15T22:09:22;93529.19;;;6.41;100.00
53522;BME280;39398;48.382;9.802;2023-04-15T22:14:23;93532.66;;;6.42;100.00
53522;BME280;39398;48.382;9.802;2023-04-15T22:19:25;93533.22;;;6.52;100.00
53522;BME280;39398;48.382;9.802;2023-04-15T22:24:28;93537.13;;;6.56;100.00
53522;BME280;39398;48.382;9.802;2023-04-15T22:29:40;93540.19;;;6.60;100.00
53522;BME280;39398;48.382;9.802;2023-04-15T22:34:42;93546.41;;;6.67;100.00
53522;BME280;39398;48.382;9.802;2023-04-15T22:39:45;93557.25;;;6.79;100.00
53522;BME280;39398;48.382;9.802;2023-04-15T22:44:47;93554.28;;;6.82;100.00
53522;BME280;39398;48.382;9.802;2023-04-15T22:49:50;93551.09;;;6.71;100.00
53522;BME280;39398;48.382;9.802;2023-04-15T22:54:53;93553.88;;;6.70;100.00
53522;BME280;39398;48.382;9.802;2023-04-15T22:59:55;93557.81;;;6.74;100.00
53522;BME280;39398;48.382;9.802;2023-04-15T23:04:57;93557.44;;;6.77;100.00
53522;BME280;39398;48.382;9.802;2023-04-15T23:10:01;93566.44;;;6.60;100.00
53522;BME280;39398;48.382;9.802;2023-04-15T23:15:04;93563.41;;;6.71;100.00
53522;BME280;39398;48.382;9.802;2023-04-15T23:20:06;93573.13;;;6.62;100.00
53522;BME280;39398;48.382;9.802;2023-04-15T23:25:09;93571.56;;;6.53;100.00
53522;BME280;39398;48.382;9.802;2023-04-15T23:30:11;93573.50;;;6.59;100.00
53522;BME280;39398;48.382;9.802;2023-04-15T23:35:12;93583.53;;;6.56;100.00
53522;BME280;39398;48.382;9.802;2023-04-15T23:40:16;93583.47;;;6.64;100.00
53522;BME280;39398;48.382;9.802;2023-04-15T23:45:17;93585.38;;;6.70;100.00
53522;BME280;39398;48.382;9.802;2023-04-15T23:50:19;93588.22;;;6.60;100.00
53522;BME280;39398;48.382;9.802;2023-04-15T23:55:28;93583.38;;;6.72;100.00
